Time;durP1;ratioP1;P1;durP2;ratioP2;P2;SDS_P1;SDS_P2;PMS_P1;PMS_P2;Temp;Humidity;BMP_temperature;BMP_pressure;BME280_temperature;BME280_humidity;BME280_pressure;Samples;Min_cycle;Max_cycle;Signal;HPM_P1;HPM_P2
2021/07/18 00:00:55;;;;;;;5.67;3.50;;;19.30;99.90;;;;;;5091386;28;20185;-68
2021/07/18 00:03:20;;;;;;;3.90;2.87;;;19.30;99.90;;;;;;5094538;28;20248;-68
2021/07/18 00:05:46;;;;;;;7.73;4.17;;;19.20;99.90;;;;;;5095121;28;20181;-69
2021/07/18 00:08:12;;;;;;;6.23;3.50;;;19.10;99.90;;;;;;5095060;28;20216;-69
2021/07/18 00:10:37;;;;;;;5.97;3.50;;;19.10;99.90;;;;;;5095129;28;20204;-69
2021/07/18 00:13:03;;;;;;;4.23;3.13;;;19.10;99.90;;;;;;5094514;28;20628;-69
2021/07/18 00:15:29;;;;;;;4.43;2.73;;;19.00;99.90;;;;;;5095207;28;20395;-69
2021/07/18 00:17:56;;;;;;;5.17;3.47;;;19.00;99.90;;;;;;5094834;28;20161;-68
2021/07/18 00:20:22;;;;;;;7.40;3.60;;;18.90;99.90;;;;;;5094917;28;20184;-68
2021/07/18 00:22:47;;;;;;;9.63;6.37;;;18.90;99.90;;;;;;5095259;28;20748;-68
2021/07/18 00:25:13;;;;;;;7.73;3.90;;;18.90;99.90;;;;;;5096262;28;20410;-69
2021/07/18 00:27:39;;;;;;;7.03;3.10;;;18.80;99.90;;;;;;5098923;28;20199;-69
2021/07/18 00:30:06;;;;;;;7.90;3.60;;;18.80;99.90;;;;;;5098753;28;20208;-70
2021/07/18 00:32:32;;;;;;;3.67;3.30;;;18.80;99.90;;;;;;5095383;28;20401;-68
2021/07/18 00:34:57;;;;;;;5.30;2.97;;;18.80;99.90;;;;;;5097667;28;20441;-69
2021/07/18 00:37:23;;;;;;;6.03;3.40;;;18.80;99.90;;;;;;5095386;28;20173;-68
2021/07/18 00:39:48;;;;;;;5.93;3.60;;;18.70;99.90;;;;;;5098109;28;20243;-69
2021/07/18 00:42:20;;;;;;;6.07;3.10;;;18.80;99.90;;;;;;5099377;28;20306;-67
2021/07/18 00:44:46;;;;;;;4.63;3.00;;;18.70;99.90;;;;;;5094014;28;20181;-68
2021/07/18 00:47:13;;;;;;;7.30;3.80;;;18.60;99.90;;;;;;5096743;28;20411;-68
2021/07/18 00:49:38;;;;;;;3.13;2.80;;;18.60;99.90;;;;;;5094492;28;20454;-68
2021/07/18 00:52:05;;;;;;;24.33;4.57;;;18.60;99.90;;;;;;5094405;28;20408;-67
2021/07/18 00:54:31;;;;;;;3.47;2.90;;;18.50;99.90;;;;;;5096426;28;20546;-68
2021/07/18 00:56:57;;;;;;;5.40;3.23;;;18.50;99.90;;;;;;5097281;28;20388;-67
2021/07/18 00:59:24;;;;;;;6.67;3.63;;;18.50;99.90;;;;;;5096198;28;20463;-67
2021/07/18 01:01:50;;;;;;;8.93;3.30;;;18.50;99.90;;;;;;5093899;28;20173;-70
2021/07/18 01:04:16;;;;;;;9.93;3.63;;;18.40;99.90;;;;;;5095473;28;20632;-67
2021/07/18 01:06:41;;;;;;;4.57;2.93;;;18.50;99.90;;;;;;5096133;28;20414;-67
2021/07/18 01:09:07;;;;;;;5.27;4.13;;;18.50;99.90;;;;;;5096831;28;20234;-67
2021/07/18 01:11:33;;;;;;;5.27;3.23;;;18.40;99.90;;;;;;5094360;28;20438;-68
2021/07/18 01:13:59;;;;;;;4.40;2.93;;;18.40;99.90;;;;;;5093842;28;20172;-68
2021/07/18 01:16:25;;;;;;;7.90;3.40;;;18.40;99.90;;;;;;5093876;28;20294;-69
2021/07/18 01:18:50;;;;;;;5.40;3.63;;;18.40;99.90;;;;;;5096561;28;20199;-68
2021/07/18 01:21:16;;;;;;;5.43;3.33;;;18.30;99.90;;;;;;5098676;28;20900;-67
2021/07/18 01:23:42;;;;;;;6.53;3.40;;;18.30;99.90;;;;;;5096765;28;20172;-68
2021/07/18 01:26:08;;;;;;;6.83;3.30;;;18.20;99.90;;;;;;5095936;28;20168;-68
2021/07/18 01:28:33;;;;;;;5.20;3.70;;;18.20;99.90;;;;;;5096727;28;20733;-68
2021/07/18 01:30:59;;;;;;;3.00;2.70;;;18.20;99.90;;;;;;5094859;28;20161;-68
2021/07/18 01:33:25;;;;;;;5.50;3.63;;;18.20;99.90;;;;;;5094084;28;20175;-69
2021/07/18 01:35:50;;;;;;;5.17;2.83;;;18.20;99.90;;;;;;5096027;28;20772;-68
2021/07/18 01:38:16;;;;;;;6.70;3.73;;;18.20;99.90;;;;;;5097022;28;20215;-68
2021/07/18 01:40:42;;;;;;;5.30;3.60;;;18.20;99.90;;;;;;5096981;28;20209;-70
2021/07/18 01:43:08;;;;;;;5.00;3.20;;;18.10;99.90;;;;;;5096194;28;20562;-69
2021/07/18 01:45:34;;;;;;;5.27;3.13;;;18.00;99.90;;;;;;5097835;28;20807;-69
2021/07/18 01:47:59;;;;;;;8.40;3.03;;;18.00;99.90;;;;;;5096736;28;20406;-69
2021/07/18 01:50:25;;;;;;;4.80;3.40;;;18.00;99.90;;;;;;5093167;28;20240;-70
2021/07/18 01:52:53;;;;;;;3.90;3.50;;;18.00;99.90;;;;;;5093156;28;20194;-69
2021/07/18 01:55:19;;;;;;;10.13;3.40;;;18.00;99.90;;;;;;5095581;28;20172;-69
2021/07/18 01:57:46;;;;;;;5.73;3.00;;;18.00;99.90;;;;;;5094084;28;20410;-69
2021/07/18 02:00:13;;;;;;;5.23;3.10;;;18.00;99.90;;;;;;5094518;28;20434;-69
2021/07/18 02:02:45;;;;;;;7.40;3.40;;;18.00;99.90;;;;;;5096650;28;20407;-70
2021/07/18 02:05:12;;;;;;;6.23;3.53;;;17.90;99.90;;;;;;5096594;28;20399;-70
2021/07/18 02:07:38;;;;;;;6.70;3.00;;;18.00;99.90;;;;;;5094089;28;20401;-69
2021/07/18 02:10:05;;;;;;;4.50;3.10;;;17.90;99.90;;;;;;5092867;28;20455;-69
2021/07/18 02:12:34;;;;;;;6.53;3.37;;;17.80;99.90;;;;;;5092690;28;20442;-69
2021/07/18 02:14:59;;;;;;;5.00;2.73;;;17.80;99.90;;;;;;5093112;28;20801;-69
2021/07/18 02:17:25;;;;;;;5.10;3.90;;;17.70;99.90;;;;;;5095487;28;20403;-69
2021/07/18 02:19:51;;;;;;;3.47;2.40;;;17.70;99.90;;;;;;5096239;28;20192;-69
2021/07/18 02:22:25;;;;;;;6.13;2.77;;;17.80;99.90;;;;;;5077715;28;20206;-69
2021/07/18 02:24:51;;;;;;;5.27;3.30;;;17.70;99.90;;;;;;5094971;28;20167;-69
2021/07/18 02:27:16;;;;;;;3.37;3.07;;;17.70;99.90;;;;;;5095385;28;20905;-69
2021/07/18 02:29:42;;;;;;;5.20;3.87;;;17.70;99.90;;;;;;5095490;28;20239;-69
2021/07/18 02:32:07;;;;;;;4.80;2.90;;;17.70;99.90;;;;;;5093418;28;20172;-69
2021/07/18 02:34:33;;;;;;;3.57;3.27;;;17.60;99.90;;;;;;5092312;28;20225;-69
2021/07/18 02:36:58;;;;;;;3.83;2.90;;;17.60;99.90;;;;;;5093788;28;20661;-69
2021/07/18 02:39:24;;;;;;;6.63;3.60;;;17.60;99.90;;;;;;5094318;28;20384;-68
2021/07/18 02:41:49;;;;;;;4.97;3.67;;;17.60;99.90;;;;;;5094848;28;20173;-69
2021/07/18 02:44:15;;;;;;;4.87;3.50;;;17.60;99.90;;;;;;5093467;28;20604;-69
2021/07/18 02:46:40;;;;;;;4.03;3.73;;;17.50;99.90;;;;;;5094605;28;20167;-69
2021/07/18 02:49:06;;;;;;;7.50;3.60;;;17.50;99.90;;;;;;5093880;28;20210;-69
2021/07/18 02:51:32;;;;;;;7.37;3.80;;;17.40;99.90;;;;;;5092772;28;20250;-69
2021/07/18 02:53:58;;;;;;;4.40;3.10;;;17.40;99.90;;;;;;5092085;28;20187;-69
2021/07/18 02:56:24;;;;;;;5.07;4.20;;;17.40;99.90;;;;;;5091971;28;20507;-69
2021/07/18 02:58:50;;;;;;;4.80;3.03;;;17.40;99.90;;;;;;5092076;28;20192;-69
2021/07/18 03:01:15;;;;;;;3.50;3.20;;;17.40;99.90;;;;;;5092428;28;20776;-69
2021/07/18 03:03:41;;;;;;;5.27;3.57;;;17.40;99.90;;;;;;5092309;28;20184;-69
2021/07/18 03:06:06;;;;;;;3.50;3.20;;;17.40;99.90;;;;;;5092453;28;20255;-69
2021/07/18 03:08:32;;;;;;;4.77;3.37;;;17.40;99.90;;;;;;5092293;28;20198;-69
2021/07/18 03:10:57;;;;;;;4.60;3.40;;;17.30;99.90;;;;;;5092291;28;20194;-69
2021/07/18 03:13:23;;;;;;;4.33;3.60;;;17.30;99.90;;;;;;5091952;28;20225;-69
2021/07/18 03:15:48;;;;;;;4.57;3.17;;;17.30;99.90;;;;;;5091950;28;20168;-70
2021/07/18 03:18:14;;;;;;;4.53;3.77;;;17.30;99.90;;;;;;5091785;28;20558;-70
2021/07/18 03:20:39;;;;;;;4.70;3.30;;;17.30;99.90;;;;;;5091838;28;20264;-70
2021/07/18 03:23:05;;;;;;;5.67;4.07;;;17.30;99.90;;;;;;5091700;28;20169;-70
2021/07/18 03:25:30;;;;;;;9.03;3.63;;;17.30;99.90;;;;;;5092020;28;20168;-70
2021/07/18 03:27:56;;;;;;;7.27;3.70;;;17.30;99.90;;;;;;5091853;28;20204;-70
2021/07/18 03:30:22;;;;;;;4.50;2.93;;;17.30;99.90;;;;;;5090202;28;20570;-70
2021/07/18 03:32:48;;;;;;;5.20;3.53;;;17.30;99.90;;;;;;5091538;28;20163;-71
2021/07/18 03:35:14;;;;;;;7.10;2.87;;;17.30;99.90;;;;;;5091625;28;20176;-71
2021/07/18 03:37:40;;;;;;;3.53;3.23;;;17.30;99.90;;;;;;5093798;28;20407;-69
2021/07/18 03:40:09;;;;;;;4.90;3.80;;;17.30;99.90;;;;;;5095769;28;20882;-69
2021/07/18 03:42:35;;;;;;;6.60;4.00;;;17.30;99.90;;;;;;5095096;28;20874;-70
2021/07/18 03:45:00;;;;;;;4.00;3.60;;;17.30;99.90;;;;;;5094132;28;20510;-69
2021/07/18 03:47:26;;;;;;;6.63;3.67;;;17.30;99.90;;;;;;5095659;28;20747;-69
2021/07/18 03:49:51;;;;;;;3.50;2.90;;;17.30;99.90;;;;;;5095463;28;20259;-69
2021/07/18 03:52:17;;;;;;;6.60;3.10;;;17.30;99.90;;;;;;5095347;28;20175;-69
2021/07/18 03:54:42;;;;;;;4.60;3.20;;;17.30;99.90;;;;;;5095257;28;20554;-70
2021/07/18 03:57:07;;;;;;;6.20;3.10;;;17.40;99.90;;;;;;5095062;28;20589;-70
2021/07/18 03:59:33;;;;;;;5.93;2.90;;;17.40;99.90;;;;;;5095192;28;20192;-70
2021/07/18 04:01:59;;;;;;;3.80;3.07;;;17.40;99.90;;;;;;5095278;28;20175;-70
2021/07/18 04:04:26;;;;;;;5.37;3.63;;;17.40;99.90;;;;;;5095394;28;20567;-70
2021/07/18 04:06:51;;;;;;;4.07;3.17;;;17.40;99.90;;;;;;5095553;28;20186;-70
2021/07/18 04:09:17;;;;;;;5.40;3.73;;;17.50;99.90;;;;;;5094913;28;20463;-70
2021/07/18 04:11:42;;;;;;;8.20;3.73;;;17.50;99.90;;;;;;5095480;28;20175;-70
2021/07/18 04:14:07;;;;;;;8.27;3.77;;;17.60;99.90;;;;;;5095223;28;20169;-70
2021/07/18 04:16:33;;;;;;;5.57;3.37;;;17.60;99.90;;;;;;5095013;28;20163;-70
2021/07/18 04:18:58;;;;;;;3.30;3.10;;;17.60;99.90;;;;;;5094693;28;20184;-70
2021/07/18 04:21:24;;;;;;;5.57;3.40;;;17.70;99.90;;;;;;5094790;28;20254;-69
2021/07/18 04:23:51;;;;;;;5.30;2.97;;;17.70;99.90;;;;;;5093449;28;20177;-69
2021/07/18 04:26:16;;;;;;;3.60;3.30;;;17.70;99.90;;;;;;5094670;28;20182;-69
2021/07/18 04:28:42;;;;;;;3.03;2.53;;;17.80;99.90;;;;;;5094620;28;20781;-70
2021/07/18 04:31:07;;;;;;;5.17;3.30;;;17.80;99.90;;;;;;5094939;28;20176;-69
2021/07/18 04:33:33;;;;;;;4.27;2.77;;;17.90;99.90;;;;;;5094512;28;20169;-69
2021/07/18 04:35:58;;;;;;;3.43;3.10;;;18.20;99.90;;;;;;5094790;28;20199;-69
2021/07/18 04:38:24;;;;;;;3.70;2.80;;;18.30;99.90;;;;;;5094780;28;20179;-69
2021/07/18 04:40:50;;;;;;;3.10;2.80;;;18.50;99.90;;;;;;5094354;28;20221;-70
2021/07/18 04:43:15;;;;;;;3.80;3.00;;;18.80;99.90;;;;;;5093768;28;20179;-70
2021/07/18 04:45:41;;;;;;;7.73;2.80;;;19.00;99.90;;;;;;5093150;28;20223;-70
2021/07/18 04:48:06;;;;;;;5.60;3.17;;;18.90;99.90;;;;;;5093859;28;20684;-70
2021/07/18 04:50:32;;;;;;;3.10;2.80;;;18.60;99.90;;;;;;5094336;28;20190;-70
2021/07/18 04:52:57;;;;;;;2.93;2.70;;;18.50;99.90;;;;;;5094306;28;20541;-70
2021/07/18 04:55:23;;;;;;;3.10;2.47;;;18.60;99.90;;;;;;5094331;28;20175;-70
2021/07/18 04:57:49;;;;;;;3.33;2.53;;;18.60;99.90;;;;;;5094386;28;20511;-69
2021/07/18 05:00:17;;;;;;;3.70;3.40;;;18.60;99.90;;;;;;5094517;28;20519;-70
2021/07/18 05:02:43;;;;;;;3.73;3.37;;;18.90;99.90;;;;;;5094266;28;20606;-71
2021/07/18 05:05:14;;;;;;;4.53;1.90;;;19.00;99.90;;;;;;5094554;28;20413;-70
2021/07/18 05:07:53;;;;;;;3.67;2.17;;;19.20;99.90;;;;;;5094311;28;20779;-70
2021/07/18 05:10:20;;;;;;;5.37;2.53;;;19.50;99.90;;;;;;5094075;28;20987;-68
2021/07/18 05:12:46;;;;;;;3.93;2.10;;;20.30;99.90;;;;;;5093742;28;20497;-68
2021/07/18 05:15:12;;;;;;;5.67;2.67;;;21.30;99.90;;;;;;5093876;28;20490;-67
2021/07/18 05:17:38;;;;;;;4.10;3.10;;;20.90;99.90;;;;;;5093988;28;20931;-68
2021/07/18 05:20:05;;;;;;;5.13;2.70;;;21.50;99.90;;;;;;5094220;28;20551;-68
2021/07/18 05:22:30;;;;;;;3.53;2.40;;;21.70;99.90;;;;;;5093997;28;20193;-69
2021/07/18 05:24:56;;;;;;;3.47;2.10;;;22.10;99.90;;;;;;5095167;28;20862;-70
2021/07/18 05:27:22;;;;;;;2.30;1.90;;;21.90;99.90;;;;;;5099058;28;20186;-70
2021/07/18 05:29:47;;;;;;;8.03;3.20;;;21.80;99.90;;;;;;5079754;28;20267;-68
2021/07/18 05:32:13;;;;;;;4.43;2.50;;;22.40;99.90;;;;;;5098538;28;20161;-69
2021/07/18 05:34:39;;;;;;;3.63;2.10;;;22.60;99.90;;;;;;5097572;28;20206;-68
2021/07/18 05:37:05;;;;;;;4.07;2.37;;;23.10;99.90;;;;;;5094876;28;20169;-69
2021/07/18 05:39:31;;;;;;;6.03;2.40;;;22.30;99.90;;;;;;5096882;28;20200;-68
2021/07/18 05:41:57;;;;;;;2.90;2.53;;;23.00;99.90;;;;;;5098241;28;20769;-68
2021/07/18 05:44:22;;;;;;;2.73;2.10;;;23.60;99.90;;;;;;5097762;28;20176;-70
2021/07/18 05:46:48;;;;;;;5.93;2.03;;;23.20;99.90;;;;;;5094606;28;20232;-68
2021/07/18 05:49:13;;;;;;;3.20;2.57;;;22.00;99.90;;;;;;5098193;28;20273;-69
2021/07/18 05:51:39;;;;;;;2.60;2.10;;;22.80;99.90;;;;;;5094990;28;20691;-68
2021/07/18 05:54:04;;;;;;;3.80;2.20;;;23.70;99.90;;;;;;5095211;28;20175;-70
2021/07/18 05:56:29;;;;;;;3.53;2.07;;;23.50;99.90;;;;;;5097819;28;20171;-68
2021/07/18 05:58:55;;;;;;;3.33;2.20;;;23.00;99.90;;;;;;5097700;28;20187;-68
2021/07/18 06:01:20;;;;;;;2.60;1.90;;;23.10;99.90;;;;;;5097433;28;20167;-71
2021/07/18 06:03:46;;;;;;;4.57;2.10;;;23.00;99.90;;;;;;5097776;28;20622;-68
2021/07/18 06:06:11;;;;;;;2.40;1.60;;;23.40;99.90;;;;;;5094990;28;20176;-68
2021/07/18 06:08:37;;;;;;;2.33;1.70;;;24.20;99.90;;;;;;5092402;28;20228;-68
2021/07/18 06:11:02;;;;;;;5.50;1.83;;;24.30;99.90;;;;;;5094171;28;20647;-68
2021/07/18 06:13:28;;;;;;;2.80;1.90;;;24.50;99.90;;;;;;5093580;28;20165;-68
2021/07/18 06:15:53;;;;;;;3.33;1.97;;;23.70;99.90;;;;;;5094237;28;20172;-68
2021/07/18 06:18:19;;;;;;;3.10;1.70;;;24.40;99.90;;;;;;5094284;28;20168;-68
2021/07/18 06:20:44;;;;;;;2.70;1.60;;;25.10;99.90;;;;;;5091904;28;20661;-69
2021/07/18 06:23:10;;;;;;;4.23;2.13;;;24.90;99.90;;;;;;5091483;28;20197;-68
2021/07/18 06:25:35;;;;;;;3.93;2.30;;;24.80;99.90;;;;;;5092251;28;20255;-69
2021/07/18 06:28:01;;;;;;;3.47;1.77;;;24.40;99.90;;;;;;5092327;28;20165;-67
2021/07/18 06:30:26;;;;;;;2.83;2.00;;;25.70;99.90;;;;;;5092352;28;20216;-68
2021/07/18 06:32:52;;;;;;;2.30;1.50;;;25.60;99.90;;;;;;5093088;28;20537;-68
2021/07/18 06:35:17;;;;;;;2.33;1.80;;;25.60;99.90;;;;;;5092310;28;20165;-67
2021/07/18 06:37:43;;;;;;;3.03;1.90;;;26.50;99.90;;;;;;5094326;28;20432;-68
2021/07/18 06:40:09;;;;;;;4.30;2.03;;;26.20;99.90;;;;;;5093923;28;20552;-69
2021/07/18 06:42:35;;;;;;;2.80;1.97;;;26.70;99.90;;;;;;5092812;28;20173;-68
2021/07/18 06:45:02;;;;;;;3.90;1.73;;;27.00;99.90;;;;;;5092543;28;20425;-68
2021/07/18 06:47:28;;;;;;;2.70;1.80;;;27.20;99.90;;;;;;5093188;28;20165;-69
2021/07/18 06:49:55;;;;;;;3.23;2.13;;;27.80;99.90;;;;;;5093604;28;20454;-70
2021/07/18 06:52:21;;;;;;;3.07;1.63;;;28.00;99.90;;;;;;5093719;28;20406;-69
2021/07/18 06:54:47;;;;;;;2.17;1.80;;;27.90;99.90;;;;;;5093860;28;20407;-69
2021/07/18 06:57:12;;;;;;;2.70;1.80;;;28.10;99.90;;;;;;5093205;28;20191;-66
2021/07/18 06:59:38;;;;;;;2.20;1.67;;;28.50;99.90;;;;;;5091804;28;20601;-68
2021/07/18 07:02:03;;;;;;;3.53;2.50;;;27.90;99.90;;;;;;5093752;28;20174;-67
2021/07/18 07:04:29;;;;;;;2.40;1.47;;;28.80;99.90;;;;;;5092059;28;20242;-69
2021/07/18 07:06:55;;;;;;;2.90;1.50;;;28.30;99.90;;;;;;5094257;28;20246;-68
2021/07/18 07:09:21;;;;;;;7.50;2.00;;;27.40;99.90;;;;;;5094558;28;20205;-68
2021/07/18 07:11:46;;;;;;;3.40;1.40;;;27.80;99.90;;;;;;5098531;28;20407;-67
2021/07/18 07:14:11;;;;;;;2.40;2.07;;;28.20;99.90;;;;;;5098637;28;20173;-68
2021/07/18 07:16:37;;;;;;;1.87;1.40;;;28.70;99.90;;;;;;5102147;28;20161;-68
2021/07/18 07:19:03;;;;;;;2.00;1.67;;;28.80;99.90;;;;;;5101791;28;20272;-68
2021/07/18 07:21:29;;;;;;;2.43;1.80;;;28.90;99.90;;;;;;5101179;28;20165;-70
2021/07/18 07:23:54;;;;;;;1.93;1.77;;;28.90;99.90;;;;;;5100889;28;20430;-69
2021/07/18 07:26:20;;;;;;;2.47;1.80;;;28.70;99.90;;;;;;5101228;28;20166;-72
2021/07/18 07:28:45;;;;;;;2.23;1.60;;;29.40;99.90;;;;;;5098368;28;20241;-72
2021/07/18 07:31:11;;;;;;;1.57;1.20;;;29.00;99.90;;;;;;5099444;28;20201;-71
2021/07/18 07:33:37;;;;;;;1.73;1.50;;;29.40;99.90;;;;;;5100524;28;20165;-71
2021/07/18 07:36:04;;;;;;;3.20;1.63;;;28.80;99.90;;;;;;5098698;28;20165;-71
2021/07/18 07:38:30;;;;;;;2.97;1.60;;;28.30;99.90;;;;;;5098779;28;20543;-71
2021/07/18 07:40:56;;;;;;;2.17;1.97;;;28.40;99.90;;;;;;5098733;28;20418;-71
2021/07/18 07:43:22;;;;;;;5.37;2.17;;;29.50;99.90;;;;;;5099044;28;20837;-71
2021/07/18 07:45:47;;;;;;;1.83;1.63;;;30.00;99.90;;;;;;5099531;28;20228;-71
2021/07/18 07:48:13;;;;;;;3.57;2.17;;;30.20;99.90;;;;;;5097153;28;20731;-71
2021/07/18 07:50:38;;;;;;;1.83;1.67;;;30.30;99.90;;;;;;5098316;28;20219;-71
2021/07/18 07:53:05;;;;;;;4.20;1.87;;;30.40;99.90;;;;;;5096937;28;20633;-71
2021/07/18 07:55:31;;;;;;;2.50;1.83;;;30.40;99.90;;;;;;5098380;28;20158;-72
2021/07/18 07:57:57;;;;;;;5.17;1.90;;;28.80;99.90;;;;;;5098699;28;20453;-72
2021/07/18 08:00:23;;;;;;;2.63;1.67;;;29.20;99.90;;;;;;5098549;28;20603;-71
2021/07/18 08:02:50;;;;;;;3.67;1.70;;;29.70;99.90;;;;;;5098556;28;20188;-72
2021/07/18 08:05:17;;;;;;;3.63;2.13;;;30.20;99.90;;;;;;5098520;28;20522;-71
2021/07/18 08:07:43;;;;;;;2.30;1.67;;;30.00;99.90;;;;;;5098170;28;20399;-71
2021/07/18 08:10:14;;;;;;;1.70;1.60;;;28.80;99.90;;;;;;5097956;28;20447;-71
2021/07/18 08:12:41;;;;;;;3.63;2.27;;;30.10;99.90;;;;;;5098183;28;20169;-71
2021/07/18 08:15:08;;;;;;;1.70;1.50;;;30.00;99.90;;;;;;5098164;28;20422;-69
2021/07/18 08:17:35;;;;;;;2.03;1.77;;;29.90;99.90;;;;;;5097758;28;20400;-71
2021/07/18 08:20:03;;;;;;;2.50;1.40;;;30.40;99.90;;;;;;5096758;28;20522;-71
2021/07/18 08:22:29;;;;;;;3.07;1.50;;;31.10;99.80;;;;;;5096183;28;20800;-70
2021/07/18 08:24:55;;;;;;;3.03;1.70;;;28.70;99.90;;;;;;5093504;28;20408;-71
2021/07/18 08:27:20;;;;;;;2.43;1.93;;;30.10;99.90;;;;;;5093288;28;20418;-72
2021/07/18 08:29:46;;;;;;;3.90;1.73;;;30.80;99.10;;;;;;5094646;28;20263;-71
2021/07/18 08:32:12;;;;;;;1.87;1.40;;;30.60;99.00;;;;;;5094620;28;20169;-71
2021/07/18 08:34:37;;;;;;;3.70;1.50;;;30.30;98.60;;;;;;5095070;28;20521;-71
2021/07/18 08:37:03;;;;;;;2.50;1.30;;;31.10;98.80;;;;;;5094687;28;20154;-73
2021/07/18 08:39:29;;;;;;;2.27;1.80;;;30.70;99.10;;;;;;5094509;28;20216;-71
2021/07/18 08:41:54;;;;;;;2.90;1.70;;;30.10;99.20;;;;;;5094592;28;20188;-71
2021/07/18 08:44:22;;;;;;;2.67;2.47;;;29.90;99.90;;;;;;5094675;28;20545;-71
2021/07/18 08:46:48;;;;;;;3.00;1.93;;;30.10;99.90;;;;;;5094486;28;20168;-71
2021/07/18 08:49:13;;;;;;;2.57;1.63;;;30.10;99.60;;;;;;5094497;28;20546;-71
2021/07/18 08:51:39;;;;;;;2.37;1.90;;;27.40;99.90;;;;;;5094224;28;20494;-71
2021/07/18 08:54:05;;;;;;;2.40;2.13;;;28.50;99.90;;;;;;5094398;28;20162;-71
2021/07/18 08:56:32;;;;;;;3.67;1.70;;;27.60;99.90;;;;;;5094453;28;20173;-72
2021/07/18 08:58:59;;;;;;;1.70;1.60;;;28.40;99.90;;;;;;5094342;28;20445;-71
2021/07/18 09:01:26;;;;;;;3.10;2.10;;;29.80;99.90;;;;;;5094093;28;20399;-71
2021/07/18 09:03:52;;;;;;;2.27;2.07;;;30.60;98.50;;;;;;5094288;28;20451;-71
2021/07/18 09:06:17;;;;;;;1.70;1.60;;;30.50;99.10;;;;;;5094242;28;20481;-71
2021/07/18 09:08:46;;;;;;;3.07;1.67;;;30.20;99.00;;;;;;5094404;28;20447;-72
2021/07/18 09:11:18;;;;;;;2.90;1.90;;;31.00;98.90;;;;;;5094301;28;20161;-71
2021/07/18 09:14:01;;;;;;;3.43;1.80;;;30.00;99.60;;;;;;5093886;28;20400;-71
2021/07/18 09:16:38;;;;;;;2.90;1.30;;;30.50;99.00;;;;;;5093835;28;20512;-70
2021/07/18 09:19:30;;;;;;;2.70;1.53;;;31.00;98.10;;;;;;5092457;28;20433;-71
2021/07/18 09:22:05;;;;;;;4.67;1.70;;;30.70;98.20;;;;;;5093932;28;20914;-72
2021/07/18 09:24:34;;;;;;;1.80;1.50;;;29.80;99.90;;;;;;5093974;28;20411;-70
2021/07/18 09:27:20;;;;;;;2.70;1.90;;;30.90;98.30;;;;;;5093777;28;20445;-70
2021/07/18 09:30:03;;;;;;;2.10;1.90;;;28.30;99.90;;;;;;5093774;28;20451;-70
2021/07/18 09:32:30;;;;;;;2.90;1.50;;;28.40;99.90;;;;;;5093721;28;20395;-69
2021/07/18 09:35:03;;;;;;;5.00;1.80;;;28.40;99.90;;;;;;5092832;28;20434;-70
2021/07/18 09:37:34;;;;;;;4.43;2.10;;;29.00;99.90;;;;;;5093924;28;20760;-69
2021/07/18 09:40:05;;;;;;;1.60;1.50;;;29.80;99.60;;;;;;5093191;28;20534;-70
2021/07/18 09:42:39;;;;;;;2.10;1.57;;;29.70;99.40;;;;;;5093540;28;20407;-70
2021/07/18 09:45:13;;;;;;;2.40;1.80;;;28.70;99.90;;;;;;5093543;28;20866;-69
2021/07/18 09:47:59;;;;;;;4.00;1.70;;;29.90;99.90;;;;;;5093860;28;20402;-70
2021/07/18 09:50:34;;;;;;;2.07;1.60;;;29.40;99.00;;;;;;5092969;28;20455;-69
2021/07/18 09:53:09;;;;;;;2.43;1.73;;;29.00;99.60;;;;;;5091985;28;20407;-70
2021/07/18 09:55:35;;;;;;;2.30;2.10;;;28.60;99.90;;;;;;5093157;28;20399;-69
2021/07/18 09:58:01;;;;;;;1.83;1.63;;;29.40;99.90;;;;;;5092894;28;20411;-70
2021/07/18 10:00:41;;;;;;;3.20;1.80;;;29.60;99.80;;;;;;5093198;28;20419;-70
2021/07/18 10:03:14;;;;;;;2.40;1.80;;;29.80;99.00;;;;;;5092754;28;20214;-69
2021/07/18 10:05:40;;;;;;;2.83;1.63;;;29.40;99.90;;;;;;5092982;28;20404;-69
2021/07/18 10:08:08;;;;;;;5.57;2.13;;;29.30;99.90;;;;;;5092489;28;20407;-69
2021/07/18 10:10:35;;;;;;;2.13;1.70;;;28.60;99.90;;;;;;5092896;28;20482;-69
2021/07/18 10:13:04;;;;;;;2.17;1.53;;;29.20;99.90;;;;;;5092514;28;20400;-69
2021/07/18 10:15:31;;;;;;;2.30;1.80;;;29.90;99.90;;;;;;5092730;28;20403;-70
2021/07/18 10:17:57;;;;;;;2.50;1.90;;;29.40;99.90;;;;;;5092619;28;20780;-70
2021/07/18 10:20:24;;;;;;;2.00;1.80;;;29.60;99.70;;;;;;5095278;28;20510;-69
2021/07/18 10:22:55;;;;;;;3.50;1.90;;;29.90;99.30;;;;;;5093678;28;20248;-69
2021/07/18 10:25:23;;;;;;;4.00;1.70;;;28.80;99.90;;;;;;5092656;28;20748;-70
2021/07/18 10:27:49;;;;;;;5.57;1.73;;;28.10;99.90;;;;;;5093228;28;20419;-70
2021/07/18 10:30:18;;;;;;;2.30;1.40;;;28.00;99.90;;;;;;5096449;28;20487;-70
2021/07/18 10:32:45;;;;;;;3.00;1.70;;;28.10;99.90;;;;;;5095889;28;20431;-70
2021/07/18 10:35:11;;;;;;;1.80;1.70;;;28.50;99.90;;;;;;5095989;28;20404;-71
2021/07/18 10:37:41;;;;;;;2.60;1.60;;;27.30;99.90;;;;;;5094411;28;20410;-70
2021/07/18 10:40:15;;;;;;;3.60;2.37;;;27.10;99.90;;;;;;5092415;28;20423;-70
2021/07/18 10:42:41;;;;;;;2.17;1.97;;;27.50;99.90;;;;;;5092660;28;20547;-71
2021/07/18 10:45:24;;;;;;;4.60;1.87;;;27.50;99.90;;;;;;5092053;28;20424;-69
2021/07/18 10:48:09;;;;;;;2.23;1.80;;;27.30;99.90;;;;;;5092504;28;20589;-69
2021/07/18 10:50:43;;;;;;;2.80;2.10;;;27.30;99.90;;;;;;5093550;28;20454;-69
2021/07/18 10:53:24;;;;;;;3.00;2.30;;;27.30;99.90;;;;;;5094369;28;20402;-69
2021/07/18 10:55:51;;;;;;;1.87;1.47;;;27.30;99.90;;;;;;5094906;28;20404;-69
2021/07/18 10:58:39;;;;;;;2.20;2.00;;;27.00;99.90;;;;;;5093964;28;20398;-69
2021/07/18 11:01:11;;;;;;;2.97;2.40;;;26.80;99.90;;;;;;5093498;28;20398;-69
2021/07/18 11:03:41;;;;;;;2.47;2.27;;;27.00;99.90;;;;;;5094647;28;20432;-68
2021/07/18 11:06:29;;;;;;;3.87;1.70;;;27.00;99.90;;;;;;5096175;28;20984;-68
2021/07/18 11:09:18;;;;;;;2.20;1.97;;;26.90;99.90;;;;;;5095911;28;20486;-69
2021/07/18 11:11:52;;;;;;;3.70;2.23;;;27.00;99.90;;;;;;5092352;28;21012;-68
2021/07/18 11:14:22;;;;;;;2.17;1.93;;;27.40;99.90;;;;;;5094366;28;20399;-68
2021/07/18 11:16:55;;;;;;;3.43;2.10;;;27.30;99.90;;;;;;5095867;28;20402;-68
2021/07/18 11:19:39;;;;;;;1.73;1.60;;;27.60;99.90;;;;;;5096255;28;20423;-68
2021/07/18 11:22:10;;;;;;;1.73;1.63;;;27.20;99.90;;;;;;5096545;28;20764;-68
2021/07/18 11:25:02;;;;;;;4.70;2.63;;;27.30;99.90;;;;;;5095627;28;20423;-67
2021/07/18 11:27:44;;;;;;;5.50;1.57;;;27.10;99.90;;;;;;5094918;28;20423;-68
2021/07/18 11:30:37;;;;;;;7.13;2.00;;;26.90;99.90;;;;;;5093867;28;20574;-68
2021/07/18 11:33:31;;;;;;;2.50;2.00;;;27.00;99.90;;;;;;5092110;28;20403;-69
2021/07/18 11:35:57;;;;;;;3.10;1.70;;;26.50;99.90;;;;;;5096133;28;20398;-70
2021/07/18 11:38:23;;;;;;;2.70;1.57;;;26.40;99.90;;;;;;5092317;28;20483;-70
2021/07/18 11:40:50;;;;;;;2.57;1.93;;;26.40;99.90;;;;;;5091878;28;20497;-70
2021/07/18 11:43:15;;;;;;;3.20;2.50;;;26.50;99.90;;;;;;5096153;28;20438;-70
2021/07/18 11:45:41;;;;;;;4.60;1.67;;;26.50;99.90;;;;;;5095893;28;20391;-70
2021/07/18 11:48:07;;;;;;;2.80;1.40;;;26.60;99.90;;;;;;5095811;28;20539;-70
2021/07/18 11:50:32;;;;;;;3.67;1.80;;;26.60;99.90;;;;;;5095860;28;20207;-70
2021/07/18 11:52:59;;;;;;;1.80;1.70;;;26.80;99.90;;;;;;5096153;28;20168;-70
2021/07/18 11:55:25;;;;;;;2.17;1.70;;;26.80;99.90;;;;;;5091935;28;20168;-70
2021/07/18 11:57:52;;;;;;;3.63;1.80;;;26.40;99.90;;;;;;5092644;28;20473;-70
2021/07/18 12:00:18;;;;;;;1.80;1.53;;;26.40;99.90;;;;;;5098318;28;20440;-70
2021/07/18 12:02:44;;;;;;;2.70;1.33;;;26.50;99.90;;;;;;5097448;28;20422;-70
2021/07/18 12:05:10;;;;;;;1.83;1.53;;;25.90;99.90;;;;;;5095796;28;20177;-70
2021/07/18 12:07:36;;;;;;;1.53;1.43;;;26.20;99.90;;;;;;5095741;28;20425;-70
2021/07/18 12:10:02;;;;;;;2.37;1.60;;;26.50;99.90;;;;;;5099396;28;20548;-70
2021/07/18 12:12:28;;;;;;;2.03;1.83;;;26.30;99.90;;;;;;5099145;28;20164;-70
2021/07/18 12:14:55;;;;;;;2.00;1.80;;;26.10;99.90;;;;;;5098990;28;20905;-70
2021/07/18 12:17:21;;;;;;;4.50;1.60;;;26.30;99.90;;;;;;5097187;28;20176;-70
2021/07/18 12:19:46;;;;;;;1.60;1.50;;;26.70;99.90;;;;;;5098288;28;20812;-70
2021/07/18 12:22:19;;;;;;;2.30;1.80;;;26.30;99.90;;;;;;5098194;28;20252;-70
2021/07/18 12:24:48;;;;;;;1.83;1.40;;;26.80;99.90;;;;;;5096635;28;20215;-70
2021/07/18 12:27:26;;;;;;;1.57;1.40;;;26.50;99.90;;;;;;5096982;28;20406;-70
2021/07/18 12:29:54;;;;;;;2.10;1.57;;;26.80;99.90;;;;;;5097669;28;20957;-70
2021/07/18 12:32:21;;;;;;;2.40;1.80;;;26.90;99.90;;;;;;5097559;28;20451;-70
2021/07/18 12:34:57;;;;;;;1.60;1.50;;;26.70;99.90;;;;;;5097869;28;20433;-70
2021/07/18 12:37:26;;;;;;;3.67;1.97;;;26.90;99.90;;;;;;5097124;28;20826;-70
2021/07/18 12:39:59;;;;;;;1.80;1.50;;;26.90;99.90;;;;;;5095967;28;20429;-70
2021/07/18 12:42:31;;;;;;;2.03;1.50;;;26.80;99.90;;;;;;5096831;28;20851;-70
2021/07/18 12:44:59;;;;;;;2.60;1.63;;;26.70;99.90;;;;;;5097045;28;20419;-70
2021/07/18 12:47:30;;;;;;;2.20;1.70;;;26.70;99.90;;;;;;5095290;28;20414;-70
2021/07/18 12:50:14;;;;;;;2.10;1.70;;;26.50;99.90;;;;;;5096784;28;20592;-70